sensor_id;sensor_type;location;lat;lon;timestamp;P1;durP1;ratioP1;P2;durP2;ratioP2
18685;SDS011;9473;52.342;13.110;2022-08-01T00:01:28;5.20;;;3.90;;
18685;SDS011;9473;52.342;13.110;2022-08-01T00:03:55;6.00;;;3.67;;
18685;SDS011;9473;52.342;13.110;2022-08-01T00:06:23;5.10;;;3.28;;
18685;SDS011;9473;52.342;13.110;2022-08-01T00:08:50;5.53;;;3.60;;
18685;SDS011;9473;52.342;13.110;2022-08-01T00:11:17;10.98;;;3.80;;
18685;SDS011;9473;52.342;13.110;2022-08-01T00:13:44;4.43;;;3.47;;
18685;SDS011;9473;52.342;13.110;2022-08-01T00:16:11;5.72;;;3.80;;
18685;SDS011;9473;52.342;13.110;2022-08-01T00:18:38;5.05;;;3.67;;
18685;SDS011;9473;52.342;13.110;2022-08-01T00:21:05;6.85;;;3.90;;
18685;SDS011;9473;52.342;13.110;2022-08-01T00:23:33;7.97;;;4.18;;
18685;SDS011;9473;52.342;13.110;2022-08-01T00:26:00;7.20;;;3.53;;
18685;SDS011;9473;52.342;13.110;2022-08-01T00:28:27;6.13;;;4.03;;
18685;SDS011;9473;52.342;13.110;2022-08-01T00:30:54;6.50;;;4.03;;
18685;SDS011;9473;52.342;13.110;2022-08-01T00:33:21;5.63;;;3.72;;
18685;SDS011;9473;52.342;13.110;2022-08-01T00:35:48;8.55;;;3.97;;
18685;SDS011;9473;52.342;13.110;2022-08-01T00:38:15;5.57;;;3.97;;
18685;SDS011;9473;52.342;13.110;2022-08-01T00:40:43;4.80;;;3.58;;
18685;SDS011;9473;52.342;13.110;2022-08-01T00:43:10;6.30;;;3.90;;
18685;SDS011;9473;52.342;13.110;2022-08-01T00:45:37;5.82;;;3.72;;
18685;SDS011;9473;52.342;13.110;2022-08-01T00:48:04;8.63;;;4.10;;
18685;SDS011;9473;52.342;13.110;2022-08-01T00:50:31;7.22;;;3.88;;
18685;SDS011;9473;52.342;13.110;2022-08-01T00:52:58;6.57;;;4.00;;
18685;SDS011;9473;52.342;13.110;2022-08-01T00:55:26;5.15;;;3.80;;
18685;SDS011;9473;52.342;13.110;2022-08-01T00:57:54;5.15;;;3.75;;
18685;SDS011;9473;52.342;13.110;2022-08-01T01:00:21;5.90;;;4.00;;
18685;SDS011;9473;52.342;13.110;2022-08-01T01:02:48;5.25;;;3.80;;
18685;SDS011;9473;52.342;13.110;2022-08-01T01:05:15;4.47;;;3.70;;
18685;SDS011;9473;52.342;13.110;2022-08-01T01:07:44;4.30;;;3.72;;
18685;SDS011;9473;52.342;13.110;2022-08-01T01:10:15;4.25;;;3.67;;
18685;SDS011;9473;52.342;13.110;2022-08-01T01:12:44;8.38;;;4.10;;
18685;SDS011;9473;52.342;13.110;2022-08-01T01:15:15;6.75;;;4.00;;
18685;SDS011;9473;52.342;13.110;2022-08-01T01:17:45;7.40;;;4.03;;
18685;SDS011;9473;52.342;13.110;2022-08-01T01:20:13;5.53;;;3.88;;
18685;SDS011;9473;52.342;13.110;2022-08-01T01:22:50;5.88;;;3.95;;
18685;SDS011;9473;52.342;13.110;2022-08-01T01:25:25;5.60;;;4.18;;
18685;SDS011;9473;52.342;13.110;2022-08-01T01:27:57;5.15;;;3.92;;
18685;SDS011;9473;52.342;13.110;2022-08-01T01:30:30;5.28;;;4.03;;
18685;SDS011;9473;52.342;13.110;2022-08-01T01:32:58;6.05;;;3.83;;
18685;SDS011;9473;52.342;13.110;2022-08-01T01:35:27;4.78;;;3.78;;
18685;SDS011;9473;52.342;13.110;2022-08-01T01:37:56;4.85;;;4.03;;
18685;SDS011;9473;52.342;13.110;2022-08-01T01:40:24;6.22;;;4.30;;
18685;SDS011;9473;52.342;13.110;2022-08-01T01:42:52;5.20;;;4.10;;
18685;SDS011;9473;52.342;13.110;2022-08-01T01:45:20;6.05;;;4.00;;
18685;SDS011;9473;52.342;13.110;2022-08-01T01:47:49;5.68;;;4.10;;
18685;SDS011;9473;52.342;13.110;2022-08-01T01:50:17;5.40;;;3.90;;
18685;SDS011;9473;52.342;13.110;2022-08-01T01:52:46;5.28;;;3.90;;
18685;SDS011;9473;52.342;13.110;2022-08-01T01:55:14;4.20;;;3.80;;
18685;SDS011;9473;52.342;13.110;2022-08-01T01:57:42;5.80;;;4.30;;
18685;SDS011;9473;52.342;13.110;2022-08-01T02:00:11;7.03;;;4.63;;
18685;SDS011;9473;52.342;13.110;2022-08-01T02:02:39;6.45;;;4.50;;
18685;SDS011;9473;52.342;13.110;2022-08-01T02:05:08;7.13;;;4.53;;
18685;SDS011;9473;52.342;13.110;2022-08-01T02:07:36;5.05;;;4.15;;
18685;SDS011;9473;52.342;13.110;2022-08-01T02:10:04;5.40;;;4.28;;
18685;SDS011;9473;52.342;13.110;2022-08-01T02:12:32;7.75;;;4.22;;
18685;SDS011;9473;52.342;13.110;2022-08-01T02:14:59;7.00;;;3.97;;
18685;SDS011;9473;52.342;13.110;2022-08-01T02:17:26;6.88;;;4.47;;
18685;SDS011;9473;52.342;13.110;2022-08-01T02:19:54;7.40;;;4.30;;
18685;SDS011;9473;52.342;13.110;2022-08-01T02:22:29;6.15;;;4.13;;
18685;SDS011;9473;52.342;13.110;2022-08-01T02:24:59;5.40;;;4.47;;
18685;SDS011;9473;52.342;13.110;2022-08-01T02:27:30;5.28;;;4.10;;
18685;SDS011;9473;52.342;13.110;2022-08-01T02:29:59;5.20;;;4.10;;
18685;SDS011;9473;52.342;13.110;2022-08-01T02:32:27;5.05;;;4.25;;
18685;SDS011;9473;52.342;13.110;2022-08-01T02:34:57;6.80;;;4.38;;
18685;SDS011;9473;52.342;13.110;2022-08-01T02:37:26;6.53;;;3.70;;
18685;SDS011;9473;52.342;13.110;2022-08-01T02:39:53;4.53;;;3.90;;
18685;SDS011;9473;52.342;13.110;2022-08-01T02:42:20;6.22;;;4.18;;
18685;SDS011;9473;52.342;13.110;2022-08-01T02:44:48;5.82;;;3.90;;
18685;SDS011;9473;52.342;13.110;2022-08-01T02:47:16;8.88;;;4.03;;
18685;SDS011;9473;52.342;13.110;2022-08-01T02:49:46;5.95;;;4.13;;
18685;SDS011;9473;52.342;13.110;2022-08-01T02:52:16;7.18;;;4.28;;
18685;SDS011;9473;52.342;13.110;2022-08-01T02:54:45;5.90;;;4.20;;
18685;SDS011;9473;52.342;13.110;2022-08-01T02:57:13;4.70;;;4.20;;
18685;SDS011;9473;52.342;13.110;2022-08-01T02:59:41;6.05;;;4.10;;
18685;SDS011;9473;52.342;13.110;2022-08-01T03:02:09;4.43;;;3.45;;
18685;SDS011;9473;52.342;13.110;2022-08-01T03:04:37;4.88;;;3.83;;
18685;SDS011;9473;52.342;13.110;2022-08-01T03:07:05;4.82;;;3.88;;
18685;SDS011;9473;52.342;13.110;2022-08-01T03:09:34;7.20;;;4.43;;
18685;SDS011;9473;52.342;13.110;2022-08-01T03:12:04;5.00;;;3.75;;
18685;SDS011;9473;52.342;13.110;2022-08-01T03:14:33;5.43;;;3.90;;
18685;SDS011;9473;52.342;13.110;2022-08-01T03:17:01;6.28;;;4.07;;
18685;SDS011;9473;52.342;13.110;2022-08-01T03:19:30;8.25;;;4.00;;
18685;SDS011;9473;52.342;13.110;2022-08-01T03:21:57;5.50;;;3.60;;
18685;SDS011;9473;52.342;13.110;2022-08-01T03:24:25;4.60;;;4.07;;
18685;SDS011;9473;52.342;13.110;2022-08-01T03:26:52;5.95;;;4.00;;
18685;SDS011;9473;52.342;13.110;2022-08-01T03:29:22;6.32;;;3.70;;
18685;SDS011;9473;52.342;13.110;2022-08-01T03:31:50;5.00;;;3.80;;
18685;SDS011;9473;52.342;13.110;2022-08-01T03:34:18;6.53;;;4.20;;
18685;SDS011;9473;52.342;13.110;2022-08-01T03:36:47;6.25;;;4.00;;
18685;SDS011;9473;52.342;13.110;2022-08-01T03:39:15;5.38;;;4.25;;
18685;SDS011;9473;52.342;13.110;2022-08-01T03:41:43;5.07;;;3.63;;
18685;SDS011;9473;52.342;13.110;2022-08-01T03:44:13;5.10;;;3.95;;
18685;SDS011;9473;52.342;13.110;2022-08-01T03:46:43;4.78;;;3.78;;
18685;SDS011;9473;52.342;13.110;2022-08-01T03:49:23;6.63;;;3.95;;
18685;SDS011;9473;52.342;13.110;2022-08-01T03:51:50;6.47;;;4.00;;
18685;SDS011;9473;52.342;13.110;2022-08-01T03:54:20;4.90;;;3.90;;
18685;SDS011;9473;52.342;13.110;2022-08-01T03:56:47;4.80;;;3.60;;
18685;SDS011;9473;52.342;13.110;2022-08-01T03:59:15;5.15;;;3.75;;
18685;SDS011;9473;52.342;13.110;2022-08-01T04:01:45;5.25;;;3.70;;
18685;SDS011;9473;52.342;13.110;2022-08-01T04:04:12;5.80;;;4.10;;
18685;SDS011;9473;52.342;13.110;2022-08-01T04:06:40;7.57;;;4.22;;
18685;SDS011;9473;52.342;13.110;2022-08-01T04:09:09;5.10;;;3.95;;
18685;SDS011;9473;52.342;13.110;2022-08-01T04:11:36;5.78;;;4.00;;
18685;SDS011;9473;52.342;13.110;2022-08-01T04:14:03;5.30;;;3.70;;
18685;SDS011;9473;52.342;13.110;2022-08-01T04:16:30;5.45;;;3.78;;
18685;SDS011;9473;52.342;13.110;2022-08-01T04:18:59;5.05;;;3.60;;
18685;SDS011;9473;52.342;13.110;2022-08-01T04:21:26;5.40;;;4.10;;
18685;SDS011;9473;52.342;13.110;2022-08-01T04:23:53;5.38;;;3.88;;
18685;SDS011;9473;52.342;13.110;2022-08-01T04:26:20;6.70;;;3.60;;
18685;SDS011;9473;52.342;13.110;2022-08-01T04:28:48;5.38;;;3.53;;
18685;SDS011;9473;52.342;13.110;2022-08-01T04:31:17;4.22;;;3.10;;
18685;SDS011;9473;52.342;13.110;2022-08-01T04:33:45;4.10;;;3.50;;
18685;SDS011;9473;52.342;13.110;2022-08-01T04:36:14;4.55;;;3.80;;
18685;SDS011;9473;52.342;13.110;2022-08-01T04:38:42;6.82;;;4.13;;
18685;SDS011;9473;52.342;13.110;2022-08-01T04:41:11;6.03;;;3.70;;
18685;SDS011;9473;52.342;13.110;2022-08-01T04:43:39;5.93;;;3.70;;
18685;SDS011;9473;52.342;13.110;2022-08-01T04:46:06;5.55;;;3.38;;
18685;SDS011;9473;52.342;13.110;2022-08-01T04:48:34;5.47;;;3.40;;
18685;SDS011;9473;52.342;13.110;2022-08-01T04:51:02;4.78;;;3.67;;
18685;SDS011;9473;52.342;13.110;2022-08-01T04:53:31;5.60;;;3.35;;
18685;SDS011;9473;52.342;13.110;2022-08-01T04:55:58;5.35;;;3.70;;
18685;SDS011;9473;52.342;13.110;2022-08-01T04:58:25;4.85;;;3.65;;
18685;SDS011;9473;52.342;13.110;2022-08-01T05:00:52;5.22;;;3.83;;
18685;SDS011;9473;52.342;13.110;2022-08-01T05:03:19;5.53;;;3.45;;
18685;SDS011;9473;52.342;13.110;2022-08-01T05:05:46;6.18;;;3.85;;
18685;SDS011;9473;52.342;13.110;2022-08-01T05:08:13;4.93;;;3.75;;
18685;SDS011;9473;52.342;13.110;2022-08-01T05:10:42;5.35;;;3.47;;
18685;SDS011;9473;52.342;13.110;2022-08-01T05:13:09;5.45;;;4.00;;
18685;SDS011;9473;52.342;13.110;2022-08-01T05:15:36;4.57;;;3.65;;
18685;SDS011;9473;52.342;13.110;2022-08-01T05:18:04;4.95;;;3.60;;
18685;SDS011;9473;52.342;13.110;2022-08-01T05:20:31;6.07;;;3.70;;
18685;SDS011;9473;52.342;13.110;2022-08-01T05:22:58;5.93;;;3.38;;
18685;SDS011;9473;52.342;13.110;2022-08-01T05:25:25;4.45;;;3.40;;
18685;SDS011;9473;52.342;13.110;2022-08-01T05:27:54;5.20;;;3.22;;
18685;SDS011;9473;52.342;13.110;2022-08-01T05:30:21;4.30;;;3.13;;
18685;SDS011;9473;52.342;13.110;2022-08-01T05:32:48;3.90;;;3.25;;
18685;SDS011;9473;52.342;13.110;2022-08-01T05:35:15;4.82;;;2.95;;
18685;SDS011;9473;52.342;13.110;2022-08-01T05:37:42;4.00;;;3.03;;
18685;SDS011;9473;52.342;13.110;2022-08-01T05:40:10;4.05;;;2.67;;
18685;SDS011;9473;52.342;13.110;2022-08-01T05:42:37;4.32;;;3.30;;
18685;SDS011;9473;52.342;13.110;2022-08-01T05:45:05;4.97;;;3.28;;
18685;SDS011;9473;52.342;13.110;2022-08-01T05:47:32;3.78;;;2.90;;
18685;SDS011;9473;52.342;13.110;2022-08-01T05:49:59;3.53;;;2.95;;
18685;SDS011;9473;52.342;13.110;2022-08-01T05:52:26;3.67;;;2.97;;
18685;SDS011;9473;52.342;13.110;2022-08-01T05:54:53;5.65;;;2.80;;
18685;SDS011;9473;52.342;13.110;2022-08-01T05:57:20;3.40;;;2.80;;
18685;SDS011;9473;52.342;13.110;2022-08-01T05:59:47;3.65;;;2.90;;
18685;SDS011;9473;52.342;13.110;2022-08-01T06:02:15;3.40;;;2.78;;
18685;SDS011;9473;52.342;13.110;2022-08-01T06:04:42;3.75;;;2.75;;
18685;SDS011;9473;52.342;13.110;2022-08-01T06:07:09;4.75;;;3.15;;
18685;SDS011;9473;52.342;13.110;2022-08-01T06:09:36;4.35;;;3.10;;
18685;SDS011;9473;52.342;13.110;2022-08-01T06:12:03;3.40;;;3.10;;
18685;SDS011;9473;52.342;13.110;2022-08-01T06:14:31;3.90;;;3.10;;
18685;SDS011;9473;52.342;13.110;2022-08-01T06:16:58;3.35;;;2.70;;
18685;SDS011;9473;52.342;13.110;2022-08-01T06:19:26;3.75;;;3.00;;
18685;SDS011;9473;52.342;13.110;2022-08-01T06:21:53;4.63;;;3.20;;
18685;SDS011;9473;52.342;13.110;2022-08-01T06:24:20;2.95;;;2.60;;
18685;SDS011;9473;52.342;13.110;2022-08-01T06:26:48;3.15;;;2.75;;
18685;SDS011;9473;52.342;13.110;2022-08-01T06:29:14;3.78;;;3.05;;
18685;SDS011;9473;52.342;13.110;2022-08-01T06:31:41;2.83;;;2.47;;
18685;SDS011;9473;52.342;13.110;2022-08-01T06:34:08;4.93;;;3.42;;
18685;SDS011;9473;52.342;13.110;2022-08-01T06:36:36;3.50;;;3.15;;
18685;SDS011;9473;52.342;13.110;2022-08-01T06:39:03;3.78;;;3.33;;
18685;SDS011;9473;52.342;13.110;2022-08-01T06:41:30;5.30;;;3.55;;
18685;SDS011;9473;52.342;13.110;2022-08-01T06:43:57;6.65;;;4.20;;
18685;SDS011;9473;52.342;13.110;2022-08-01T06:46:27;4.97;;;3.58;;
18685;SDS011;9473;52.342;13.110;2022-08-01T06:48:54;4.22;;;3.30;;
18685;SDS011;9473;52.342;13.110;2022-08-01T06:51:21;4.07;;;3.50;;
18685;SDS011;9473;52.342;13.110;2022-08-01T06:53:49;4.70;;;3.38;;
18685;SDS011;9473;52.342;13.110;2022-08-01T06:56:16;5.15;;;3.08;;
18685;SDS011;9473;52.342;13.110;2022-08-01T06:58:43;5.10;;;3.17;;
18685;SDS011;9473;52.342;13.110;2022-08-01T07:01:10;5.40;;;3.30;;
18685;SDS011;9473;52.342;13.110;2022-08-01T07:03:36;6.43;;;3.35;;
18685;SDS011;9473;52.342;13.110;2022-08-01T07:06:03;5.68;;;3.25;;
18685;SDS011;9473;52.342;13.110;2022-08-01T07:08:30;4.45;;;3.50;;
18685;SDS011;9473;52.342;13.110;2022-08-01T07:10:59;4.63;;;2.92;;
18685;SDS011;9473;52.342;13.110;2022-08-01T07:13:26;4.28;;;3.80;;
18685;SDS011;9473;52.342;13.110;2022-08-01T07:15:55;4.75;;;3.38;;
18685;SDS011;9473;52.342;13.110;2022-08-01T07:18:22;5.35;;;3.42;;
18685;SDS011;9473;52.342;13.110;2022-08-01T07:20:49;4.53;;;3.75;;
18685;SDS011;9473;52.342;13.110;2022-08-01T07:23:16;4.70;;;3.78;;
18685;SDS011;9473;52.342;13.110;2022-08-01T07:25:43;6.07;;;3.58;;
18685;SDS011;9473;52.342;13.110;2022-08-01T07:28:12;5.57;;;4.32;;
18685;SDS011;9473;52.342;13.110;2022-08-01T07:30:39;6.43;;;4.28;;
18685;SDS011;9473;52.342;13.110;2022-08-01T07:33:07;5.25;;;4.05;;
18685;SDS011;9473;52.342;13.110;2022-08-01T07:35:34;6.53;;;4.10;;
18685;SDS011;9473;52.342;13.110;2022-08-01T07:38:03;5.20;;;3.75;;
18685;SDS011;9473;52.342;13.110;2022-08-01T07:40:30;7.90;;;4.82;;
18685;SDS011;9473;52.342;13.110;2022-08-01T07:42:57;7.35;;;4.85;;
18685;SDS011;9473;52.342;13.110;2022-08-01T07:45:25;6.25;;;4.60;;
18685;SDS011;9473;52.342;13.110;2022-08-01T07:47:52;5.93;;;4.70;;
18685;SDS011;9473;52.342;13.110;2022-08-01T07:50:19;6.88;;;4.68;;
18685;SDS011;9473;52.342;13.110;2022-08-01T07:52:46;8.30;;;4.70;;
18685;SDS011;9473;52.342;13.110;2022-08-01T07:55:13;7.25;;;4.80;;
18685;SDS011;9473;52.342;13.110;2022-08-01T07:57:40;7.55;;;5.28;;
18685;SDS011;9473;52.342;13.110;2022-08-01T08:00:07;6.43;;;4.50;;
18685;SDS011;9473;52.342;13.110;2022-08-01T08:02:36;6.35;;;4.85;;
18685;SDS011;9473;52.342;13.110;2022-08-01T08:05:03;7.47;;;4.85;;
18685;SDS011;9473;52.342;13.110;2022-08-01T08:07:31;8.40;;;5.13;;
18685;SDS011;9473;52.342;13.110;2022-08-01T08:09:58;6.32;;;4.90;;
18685;SDS011;9473;52.342;13.110;2022-08-01T08:12:25;7.65;;;5.97;;
18685;SDS011;9473;52.342;13.110;2022-08-01T08:14:52;6.57;;;4.88;;
18685;SDS011;9473;52.342;13.110;2022-08-01T08:17:19;7.40;;;5.20;;
18685;SDS011;9473;52.342;13.110;2022-08-01T08:19:47;6.88;;;4.03;;
18685;SDS011;9473;52.342;13.110;2022-08-01T08:22:14;6.10;;;4.90;;
18685;SDS011;9473;52.342;13.110;2022-08-01T08:24:41;6.85;;;4.25;;
18685;SDS011;9473;52.342;13.110;2022-08-01T08:27:08;4.88;;;3.50;;
18685;SDS011;9473;52.342;13.110;2022-08-01T08:29:35;4.43;;;3.05;;
18685;SDS011;9473;52.342;13.110;2022-08-01T08:32:02;5.57;;;3.38;;
18685;SDS011;9473;52.342;13.110;2022-08-01T08:34:29;5.63;;;3.10;;
18685;SDS011;9473;52.342;13.110;2022-08-01T08:36:58;4.43;;;3.00;;
18685;SDS011;9473;52.342;13.110;2022-08-01T08:39:25;3.90;;;3.00;;
18685;SDS011;9473;52.342;13.110;2022-08-01T08:41:54;3.95;;;3.22;;
18685;SDS011;9473;52.342;13.110;2022-08-01T08:44:22;6.13;;;3.45;;
18685;SDS011;9473;52.342;13.110;2022-08-01T08:46:50;5.57;;;2.97;;
18685;SDS011;9473;52.342;13.110;2022-08-01T08:49:18;3.92;;;2.60;;
18685;SDS011;9473;52.342;13.110;2022-08-01T08:51:47;8.07;;;3.08;;
18685;SDS011;9473;52.342;13.110;2022-08-01T08:54:16;3.33;;;2.85;;
18685;SDS011;9473;52.342;13.110;2022-08-01T08:56:44;3.35;;;2.42;;
18685;SDS011;9473;52.342;13.110;2022-08-01T08:59:12;3.65;;;2.90;;
18685;SDS011;9473;52.342;13.110;2022-08-01T09:01:40;5.68;;;3.05;;
18685;SDS011;9473;52.342;13.110;2022-08-01T09:04:07;3.58;;;2.53;;
18685;SDS011;9473;52.342;13.110;2022-08-01T09:06:34;3.28;;;2.70;;
18685;SDS011;9473;52.342;13.110;2022-08-01T09:09:01;3.00;;;2.58;;
18685;SDS011;9473;52.342;13.110;2022-08-01T09:11:29;4.13;;;2.72;;
18685;SDS011;9473;52.342;13.110;2022-08-01T09:14:06;4.63;;;2.70;;
18685;SDS011;9473;52.342;13.110;2022-08-01T09:16:34;3.22;;;2.60;;
18685;SDS011;9473;52.342;13.110;2022-08-01T09:19:09;7.38;;;3.58;;
18685;SDS011;9473;52.342;13.110;2022-08-01T09:21:36;4.20;;;3.08;;
18685;SDS011;9473;52.342;13.110;2022-08-01T09:24:03;6.90;;;3.00;;
18685;SDS011;9473;52.342;13.110;2022-08-01T09:26:32;4.13;;;2.78;;
18685;SDS011;9473;52.342;13.110;2022-08-01T09:29:00;3.20;;;2.55;;
18685;SDS011;9473;52.342;13.110;2022-08-01T09:31:28;4.13;;;2.70;;
18685;SDS011;9473;52.342;13.110;2022-08-01T09:33:56;3.13;;;2.72;;
18685;SDS011;9473;52.342;13.110;2022-08-01T09:36:23;4.35;;;3.20;;
18685;SDS011;9473;52.342;13.110;2022-08-01T09:38:51;4.70;;;2.40;;
18685;SDS011;9473;52.342;13.110;2022-08-01T09:41:28;3.00;;;1.92;;
18685;SDS011;9473;52.342;13.110;2022-08-01T09:43:56;2.13;;;1.67;;
18685;SDS011;9473;52.342;13.110;2022-08-01T09:46:24;4.05;;;2.03;;
18685;SDS011;9473;52.342;13.110;2022-08-01T09:48:54;3.22;;;2.47;;
18685;SDS011;9473;52.342;13.110;2022-08-01T09:51:27;3.33;;;1.83;;
18685;SDS011;9473;52.342;13.110;2022-08-01T09:53:54;2.35;;;2.13;;
18685;SDS011;9473;52.342;13.110;2022-08-01T09:56:21;2.65;;;2.10;;
18685;SDS011;9473;52.342;13.110;2022-08-01T09:58:49;3.85;;;2.00;;
18685;SDS011;9473;52.342;13.110;2022-08-01T10:01:18;2.28;;;1.67;;
18685;SDS011;9473;52.342;13.110;2022-08-01T10:03:46;1.55;;;1.40;;
18685;SDS011;9473;52.342;13.110;2022-08-01T10:06:19;1.85;;;1.60;;
18685;SDS011;9473;52.342;13.110;2022-08-01T10:08:47;2.10;;;1.35;;
18685;SDS011;9473;52.342;13.110;2022-08-01T10:11:14;1.70;;;1.40;;
18685;SDS011;9473;52.342;13.110;2022-08-01T10:13:41;1.73;;;1.42;;
18685;SDS011;9473;52.342;13.110;2022-08-01T10:16:08;1.70;;;1.35;;
18685;SDS011;9473;52.342;13.110;2022-08-01T10:18:36;2.88;;;1.60;;
18685;SDS011;9473;52.342;13.110;2022-08-01T10:21:05;2.22;;;1.60;;
18685;SDS011;9473;52.342;13.110;2022-08-01T10:23:33;2.67;;;1.42;;
18685;SDS011;9473;52.342;13.110;2022-08-01T10:26:00;1.73;;;1.40;;
18685;SDS011;9473;52.342;13.110;2022-08-01T10:28:29;3.05;;;1.38;;
18685;SDS011;9473;52.342;13.110;2022-08-01T10:30:56;3.08;;;1.60;;
18685;SDS011;9473;52.342;13.110;2022-08-01T10:33:24;2.13;;;1.70;;
18685;SDS011;9473;52.342;13.110;2022-08-01T10:35:52;2.42;;;1.90;;
18685;SDS011;9473;52.342;13.110;2022-08-01T10:38:19;1.85;;;1.48;;
18685;SDS011;9473;52.342;13.110;2022-08-01T10:40:46;1.58;;;1.48;;
18685;SDS011;9473;52.342;13.110;2022-08-01T10:43:13;2.85;;;1.80;;
18685;SDS011;9473;52.342;13.110;2022-08-01T10:45:40;1.67;;;1.50;;
18685;SDS011;9473;52.342;13.110;2022-08-01T10:48:09;1.95;;;1.60;;
18685;SDS011;9473;52.342;13.110;2022-08-01T10:50:38;1.65;;;1.55;;
18685;SDS011;9473;52.342;13.110;2022-08-01T10:53:09;1.75;;;1.60;;
18685;SDS011;9473;52.342;13.110;2022-08-01T10:55:50;3.40;;;1.85;;
18685;SDS011;9473;52.342;13.110;2022-08-01T10:58:24;2.63;;;1.38;;
18685;SDS011;9473;52.342;13.110;2022-08-01T11:03:37;1.58;;;1.20;;
18685;SDS011;9473;52.342;13.110;2022-08-01T11:06:04;1.77;;;1.10;;
18685;SDS011;9473;52.342;13.110;2022-08-01T11:08:33;1.90;;;1.20;;
18685;SDS011;9473;52.342;13.110;2022-08-01T11:11:03;1.45;;;1.35;;
18685;SDS011;9473;52.342;13.110;2022-08-01T11:16:25;3.30;;;1.55;;
18685;SDS011;9473;52.342;13.110;2022-08-01T11:18:52;1.55;;;1.02;;
18685;SDS011;9473;52.342;13.110;2022-08-01T11:21:19;2.03;;;1.50;;
18685;SDS011;9473;52.342;13.110;2022-08-01T11:23:51;1.80;;;1.63;;
18685;SDS011;9473;52.342;13.110;2022-08-01T11:26:18;2.78;;;1.40;;
18685;SDS011;9473;52.342;13.110;2022-08-01T11:28:46;1.52;;;1.20;;
18685;SDS011;9473;52.342;13.110;2022-08-01T11:31:33;1.75;;;1.40;;
18685;SDS011;9473;52.342;13.110;2022-08-01T11:34:00;1.67;;;1.35;;
18685;SDS011;9473;52.342;13.110;2022-08-01T11:36:27;1.30;;;1.20;;
18685;SDS011;9473;52.342;13.110;2022-08-01T11:39:12;1.63;;;1.40;;
18685;SDS011;9473;52.342;13.110;2022-08-01T11:41:40;1.60;;;1.50;;
18685;SDS011;9473;52.342;13.110;2022-08-01T11:44:08;2.20;;;1.23;;
18685;SDS011;9473;52.342;13.110;2022-08-01T11:46:45;1.92;;;1.50;;
18685;SDS011;9473;52.342;13.110;2022-08-01T11:49:28;1.67;;;1.40;;
18685;SDS011;9473;52.342;13.110;2022-08-01T11:51:58;2.25;;;1.70;;
18685;SDS011;9473;52.342;13.110;2022-08-01T11:54:27;1.45;;;1.30;;
18685;SDS011;9473;52.342;13.110;2022-08-01T11:56:55;2.97;;;1.50;;
18685;SDS011;9473;52.342;13.110;2022-08-01T11:59:22;2.83;;;1.40;;
18685;SDS011;9473;52.342;13.110;2022-08-01T12:01:49;1.63;;;1.30;;
18685;SDS011;9473;52.342;13.110;2022-08-01T12:04:16;3.92;;;1.60;;
18685;SDS011;9473;52.342;13.110;2022-08-01T12:06:43;1.40;;;1.30;;
18685;SDS011;9473;52.342;13.110;2022-08-01T12:09:17;1.52;;;1.42;;
18685;SDS011;9473;52.342;13.110;2022-08-01T12:11:46;1.88;;;1.45;;
18685;SDS011;9473;52.342;13.110;2022-08-01T12:14:19;2.03;;;1.38;;
18685;SDS011;9473;52.342;13.110;2022-08-01T12:16:53;3.42;;;1.40;;
18685;SDS011;9473;52.342;13.110;2022-08-01T12:19:20;1.77;;;1.38;;
18685;SDS011;9473;52.342;13.110;2022-08-01T12:22:09;1.85;;;1.23;;
18685;SDS011;9473;52.342;13.110;2022-08-01T12:24:39;1.58;;;1.48;;
18685;SDS011;9473;52.342;13.110;2022-08-01T12:27:07;1.20;;;1.10;;
18685;SDS011;9473;52.342;13.110;2022-08-01T12:29:35;2.95;;;1.17;;
18685;SDS011;9473;52.342;13.110;2022-08-01T12:32:03;2.00;;;1.30;;
18685;SDS011;9473;52.342;13.110;2022-08-01T12:34:30;1.50;;;1.20;;
18685;SDS011;9473;52.342;13.110;2022-08-01T12:36:59;2.50;;;1.23;;
18685;SDS011;9473;52.342;13.110;2022-08-01T12:39:31;2.35;;;1.20;;
18685;SDS011;9473;52.342;13.110;2022-08-01T12:41:58;1.95;;;1.55;;
18685;SDS011;9473;52.342;13.110;2022-08-01T12:44:26;3.00;;;1.25;;
18685;SDS011;9473;52.342;13.110;2022-08-01T12:46:54;2.15;;;1.13;;
18685;SDS011;9473;52.342;13.110;2022-08-01T12:49:21;3.03;;;1.23;;
18685;SDS011;9473;52.342;13.110;2022-08-01T12:51:48;2.25;;;1.20;;
18685;SDS011;9473;52.342;13.110;2022-08-01T12:54:16;1.10;;;1.00;;
18685;SDS011;9473;52.342;13.110;2022-08-01T12:56:43;2.13;;;1.10;;
18685;SDS011;9473;52.342;13.110;2022-08-01T12:59:19;2.00;;;1.20;;
18685;SDS011;9473;52.342;13.110;2022-08-01T13:01:48;3.70;;;1.10;;
18685;SDS011;9473;52.342;13.110;2022-08-01T13:04:15;1.45;;;1.23;;
18685;SDS011;9473;52.342;13.110;2022-08-01T13:06:42;1.33;;;1.20;;
18685;SDS011;9473;52.342;13.110;2022-08-01T13:09:10;1.10;;;1.00;;
18685;SDS011;9473;52.342;13.110;2022-08-01T13:11:38;1.15;;;1.00;;
18685;SDS011;9473;52.342;13.110;2022-08-01T13:14:05;2.08;;;1.30;;
18685;SDS011;9473;52.342;13.110;2022-08-01T13:16:32;3.83;;;1.02;;
18685;SDS011;9473;52.342;13.110;2022-08-01T13:19:13;1.42;;;1.15;;
18685;SDS011;9473;52.342;13.110;2022-08-01T13:21:54;2.10;;;1.08;;
18685;SDS011;9473;52.342;13.110;2022-08-01T13:24:25;1.08;;;1.00;;
18685;SDS011;9473;52.342;13.110;2022-08-01T13:26:53;1.35;;;1.10;;
18685;SDS011;9473;52.342;13.110;2022-08-01T13:29:21;0.95;;;0.85;;
18685;SDS011;9473;52.342;13.110;2022-08-01T13:31:54;0.93;;;0.90;;
18685;SDS011;9473;52.342;13.110;2022-08-01T13:34:30;3.58;;;1.20;;
18685;SDS011;9473;52.342;13.110;2022-08-01T13:36:57;1.10;;;1.00;;
18685;SDS011;9473;52.342;13.110;2022-08-01T13:39:26;1.02;;;0.90;;
18685;SDS011;9473;52.342;13.110;2022-08-01T13:42:11;1.13;;;0.77;;
18685;SDS011;9473;52.342;13.110;2022-08-01T13:44:38;0.80;;;0.80;;
18685;SDS011;9473;52.342;13.110;2022-08-01T13:47:06;2.67;;;1.02;;
18685;SDS011;9473;52.342;13.110;2022-08-01T13:49:34;1.10;;;0.90;;
18685;SDS011;9473;52.342;13.110;2022-08-01T13:52:02;0.70;;;0.70;;
18685;SDS011;9473;52.342;13.110;2022-08-01T13:54:30;0.80;;;0.77;;
18685;SDS011;9473;52.342;13.110;2022-08-01T13:56:57;1.80;;;0.88;;
18685;SDS011;9473;52.342;13.110;2022-08-01T13:59:24;1.10;;;0.90;;
18685;SDS011;9473;52.342;13.110;2022-08-01T14:01:51;0.80;;;0.80;;
18685;SDS011;9473;52.342;13.110;2022-08-01T14:04:18;1.38;;;0.80;;
18685;SDS011;9473;52.342;13.110;2022-08-01T14:06:47;1.30;;;0.70;;
18685;SDS011;9473;52.342;13.110;2022-08-01T14:09:14;1.23;;;0.80;;
18685;SDS011;9473;52.342;13.110;2022-08-01T14:11:44;0.90;;;0.73;;
18685;SDS011;9473;52.342;13.110;2022-08-01T14:14:11;1.25;;;0.90;;
18685;SDS011;9473;52.342;13.110;2022-08-01T14:16:38;1.55;;;0.70;;
18685;SDS011;9473;52.342;13.110;2022-08-01T14:19:09;1.45;;;0.82;;
18685;SDS011;9473;52.342;13.110;2022-08-01T14:21:36;1.10;;;1.00;;
18685;SDS011;9473;52.342;13.110;2022-08-01T14:24:04;0.80;;;0.70;;
18685;SDS011;9473;52.342;13.110;2022-08-01T14:26:32;0.88;;;0.70;;
18685;SDS011;9473;52.342;13.110;2022-08-01T14:28:59;1.20;;;0.80;;
18685;SDS011;9473;52.342;13.110;2022-08-01T14:31:26;3.70;;;0.80;;
18685;SDS011;9473;52.342;13.110;2022-08-01T14:33:54;1.42;;;0.70;;
18685;SDS011;9473;52.342;13.110;2022-08-01T14:36:21;2.65;;;0.95;;
18685;SDS011;9473;52.342;13.110;2022-08-01T14:38:48;1.80;;;1.00;;
18685;SDS011;9473;52.342;13.110;2022-08-01T14:41:16;1.00;;;0.80;;
18685;SDS011;9473;52.342;13.110;2022-08-01T14:43:43;0.88;;;0.70;;
18685;SDS011;9473;52.342;13.110;2022-08-01T14:46:10;2.97;;;0.85;;
18685;SDS011;9473;52.342;13.110;2022-08-01T14:48:38;0.70;;;0.70;;
18685;SDS011;9473;52.342;13.110;2022-08-01T14:51:05;2.40;;;0.90;;
18685;SDS011;9473;52.342;13.110;2022-08-01T14:53:32;2.97;;;0.70;;
18685;SDS011;9473;52.342;13.110;2022-08-01T14:56:00;1.00;;;0.90;;
18685;SDS011;9473;52.342;13.110;2022-08-01T14:58:28;0.73;;;0.73;;
18685;SDS011;9473;52.342;13.110;2022-08-01T15:00:55;1.30;;;0.75;;